createdAt,value
2023-10-30T00:07:57.975Z,4.7
2023-10-30T00:23:18.779Z,1.2
2023-10-30T00:38:38.599Z,0.4
2023-10-30T00:53:59.401Z,1.2
2023-10-30T01:09:20.205Z,2.5
2023-10-30T01:24:41.008Z,0.5
2023-10-30T01:40:01.811Z,1.5
2023-10-30T01:55:22.615Z,0.3
2023-10-30T02:10:42.440Z,0.9
2023-10-30T02:26:03.243Z,0.6
2023-10-30T02:41:24.047Z,0.5
2023-10-30T02:56:44.851Z,0.4
2023-10-30T03:12:05.655Z,0.4
2023-10-30T03:27:26.459Z,0.8
2023-10-30T03:42:47.262Z,8.1
2023-10-30T03:58:08.067Z,3.2
2023-10-30T04:13:28.870Z,6.9
2023-10-30T04:28:49.673Z,1.8
2023-10-30T04:44:10.477Z,0.3
2023-10-30T04:59:31.280Z,3
2023-10-30T05:14:52.084Z,2.9
2023-10-30T05:30:11.904Z,2.7
2023-10-30T05:45:32.668Z,2
2023-10-30T06:00:53.427Z,4.8
2023-10-30T06:16:14.188Z,5.3
2023-10-30T06:31:34.948Z,0.9
2023-10-30T06:46:55.709Z,1
2023-10-30T07:02:16.469Z,1.7
2023-10-30T07:17:37.231Z,2.7
2023-10-30T07:32:57.994Z,1.8
2023-10-30T07:48:18.755Z,4.4
2023-10-30T08:03:39.517Z,4.7
2023-10-30T08:19:00.278Z,6.5
2023-10-30T08:34:21.040Z,3.1
2023-10-30T08:49:40.818Z,1.5
2023-10-30T09:05:01.577Z,3.1
2023-10-30T09:20:22.339Z,5.8
2023-10-30T09:35:43.099Z,1.9
2023-10-30T09:51:03.860Z,2
2023-10-30T10:06:24.622Z,3.2
2023-10-30T10:21:45.383Z,6
2023-10-30T10:37:06.144Z,5.1
2023-10-30T10:52:26.905Z,5.7
2023-10-30T11:07:47.664Z,2.5
2023-10-30T11:23:08.423Z,0.8
2023-10-30T11:38:29.183Z,1.1
2023-10-30T11:53:49.944Z,2.1
2023-10-30T12:09:09.720Z,1.6
2023-10-30T12:24:30.480Z,1.7
2023-10-30T12:39:51.239Z,2.1
2023-10-30T12:55:12.002Z,1.9
2023-10-30T13:10:32.761Z,1.2
2023-10-30T13:25:53.521Z,2.2
2023-10-30T13:41:14.280Z,3.1
2023-10-30T13:56:35.042Z,4.3
2023-10-30T14:11:55.802Z,1.9
2023-10-30T14:27:16.564Z,1.6
2023-10-30T14:42:37.324Z,4.9
2023-10-30T14:57:58.084Z,2.2
2023-10-30T15:13:18.844Z,2.6
2023-10-30T15:28:38.620Z,2.1
2023-10-30T15:43:59.381Z,4.1
2023-10-30T15:59:20.141Z,6.9
2023-10-30T16:14:40.945Z,1.6
2023-10-30T16:30:01.748Z,6.6
2023-10-30T16:45:22.558Z,4
2023-10-30T17:00:43.361Z,14.4
2023-10-30T17:16:04.164Z,16.5
2023-10-30T17:31:24.969Z,20.3
2023-10-30T17:46:45.773Z,26.7
2023-10-30T18:02:06.580Z,16.3
2023-10-30T18:17:27.388Z,6.4
2023-10-30T18:32:48.178Z,27.6
2023-10-30T18:48:08.012Z,7.2
2023-10-30T19:03:28.818Z,5.8
2023-10-30T19:18:49.622Z,7.7
2023-10-30T19:34:10.426Z,4
2023-10-30T19:49:31.231Z,6.7
2023-10-30T20:04:52.035Z,4.4
2023-10-30T20:20:12.833Z,6.4
2023-10-30T20:35:33.645Z,13.6
2023-10-30T20:50:54.449Z,13.4
2023-10-30T21:06:15.244Z,12.3
2023-10-30T21:21:36.058Z,5.7
2023-10-30T21:36:56.862Z,16.8
2023-10-30T21:52:17.667Z,8
2023-10-30T22:07:37.487Z,7
2023-10-30T22:22:58.292Z,5.8
2023-10-30T22:38:19.096Z,12.6
2023-10-30T22:53:39.900Z,13.1
2023-10-30T23:09:00.705Z,7.5
2023-10-30T23:24:21.510Z,9
2023-10-30T23:39:42.314Z,6.9
2023-10-30T23:55:03.109Z,6.3
